createdAt,value
2018-06-10T00:00:51.287Z,99.15
2018-06-10T00:02:00.773Z,99.15
2018-06-10T00:03:10.246Z,99.63
2018-06-10T00:04:20.261Z,99.63
2018-06-10T00:05:30.271Z,99.82
2018-06-10T00:06:39.752Z,99.63
2018-06-10T00:07:49.760Z,99.43
2018-06-10T00:08:59.502Z,99.91
2018-06-10T00:10:08.981Z,99.99
2018-06-10T00:11:18.461Z,99.99
2018-06-10T00:12:28.210Z,99.99
2018-06-10T00:13:37.947Z,99.91
2018-06-10T00:14:47.425Z,99.99
2018-06-10T00:15:57.431Z,99.82
2018-06-10T00:17:07.436Z,99.99
2018-06-10T00:18:17.178Z,99.99
2018-06-10T00:19:26.920Z,99.99
2018-06-10T00:20:36.127Z,99.99
2018-06-10T00:21:46.135Z,99.99
2018-06-10T00:22:55.885Z,99.99
2018-06-10T00:24:05.625Z,99.99
2018-06-10T00:25:15.368Z,99.99
2018-06-10T00:26:25.383Z,99.99
2018-06-10T00:27:34.856Z,99.82
2018-06-10T00:28:44.861Z,99.99
2018-06-10T00:29:54.870Z,99.91
2018-06-10T00:31:04.671Z,99.72
2018-06-10T00:32:13.881Z,99.72
2018-06-10T00:33:23.624Z,99.99
2018-06-10T00:34:33.365Z,99.99
2018-06-10T00:35:43.111Z,99.99
2018-06-10T00:36:53.120Z,99.99
2018-06-10T00:38:02.857Z,99.99
2018-06-10T00:39:12.876Z,99.99
2018-06-10T00:40:22.889Z,99.99
2018-06-10T00:41:32.902Z,99.99
2018-06-10T00:42:42.644Z,99.99
2018-06-10T00:43:52.662Z,99.99
2018-06-10T00:45:02.142Z,99.99
2018-06-10T00:46:12.159Z,99.99
2018-06-10T00:47:23.644Z,99.99
2018-06-10T00:48:33.391Z,99.99
2018-06-10T00:49:43.140Z,99.99
2018-06-10T00:50:53.162Z,99.99
2018-06-10T00:52:03.178Z,99.99
2018-06-10T00:53:12.389Z,99.99
2018-06-10T00:54:22.403Z,99.99
2018-06-10T00:55:32.421Z,99.99
2018-06-10T00:56:42.424Z,99.99
2018-06-10T00:57:52.436Z,99.99
2018-06-10T00:59:02.446Z,99.99
2018-06-10T01:00:12.188Z,99.99
2018-06-10T01:01:22.309Z,99.99
2018-06-10T01:02:32.315Z,99.99
2018-06-10T01:03:42.340Z,99.91
2018-06-10T01:04:52.346Z,99.77
2018-06-10T01:06:02.087Z,99.99
2018-06-10T01:07:11.826Z,99.43
2018-06-10T01:08:21.566Z,99.1
2018-06-10T01:09:31.317Z,98.52
2018-06-10T01:10:41.329Z,98.05
2018-06-10T01:11:51.067Z,98.33
2018-06-10T01:13:01.090Z,97.85
2018-06-10T01:14:10.832Z,98.14
2018-06-10T01:15:20.844Z,97.09
2018-06-10T01:16:30.851Z,96.8
2018-06-10T01:17:40.323Z,96.61
2018-06-10T01:18:50.066Z,96.22
2018-06-10T01:20:00.078Z,96.8
2018-06-10T01:21:09.292Z,96.42
2018-06-10T01:22:19.300Z,96.61
2018-06-10T01:23:29.312Z,96.42
2018-06-10T01:24:39.320Z,96.89
2018-06-10T01:25:49.064Z,96.8
2018-06-10T01:26:59.070Z,97.75
2018-06-10T01:28:09.166Z,98.14
2018-06-10T01:29:18.914Z,97.85
2018-06-10T01:30:28.660Z,98.43
2018-06-10T01:31:38.669Z,99.67
2018-06-10T01:32:48.148Z,99.99
2018-06-10T01:33:57.886Z,99.99
2018-06-10T01:35:07.626Z,99.99
2018-06-10T01:36:17.100Z,99.99
2018-06-10T01:37:27.108Z,99.99
2018-06-10T01:38:37.117Z,99.99
2018-06-10T01:39:47.126Z,99.77
2018-06-10T01:40:57.130Z,99.77
2018-06-10T01:42:06.873Z,99.99
2018-06-10T01:43:16.890Z,99.87
2018-06-10T01:44:26.366Z,99.77
2018-06-10T01:45:36.110Z,99
2018-06-10T01:46:46.117Z,99.05
2018-06-10T01:47:56.123Z,98.67
2018-06-10T01:49:05.864Z,98.14
2018-06-10T01:50:15.873Z,97.66
2018-06-10T01:51:25.613Z,97.28
2018-06-10T01:52:35.625Z,96.75
2018-06-10T01:53:45.371Z,96.51
2018-06-10T01:54:55.379Z,96.7
2018-06-10T01:56:05.403Z,96.03
2018-06-10T01:57:15.411Z,96.42
2018-06-10T01:58:24.886Z,95.36
2018-06-10T01:59:34.900Z,95.41
2018-06-10T02:00:44.909Z,95.27
2018-06-10T02:01:54.655Z,96.18
2018-06-10T02:03:08.062Z,95.51
2018-06-10T02:04:18.066Z,94.93
2018-06-10T02:05:27.541Z,95.07
2018-06-10T02:06:37.284Z,95.31
2018-06-10T02:07:46.762Z,95.6
2018-06-10T02:08:56.774Z,95.51
2018-06-10T02:10:06.255Z,95.94
2018-06-10T02:11:16.259Z,95.31
2018-06-10T02:12:25.741Z,96.13
2018-06-10T02:13:35.752Z,96.08
2018-06-10T02:14:45.850Z,96.18
2018-06-10T02:15:55.603Z,95.98
2018-06-10T02:17:05.618Z,95.98
2018-06-10T02:18:15.624Z,95.31
2018-06-10T02:19:25.631Z,95.51
2018-06-10T02:20:37.375Z,96.08
2018-06-10T02:21:47.385Z,96.18
2018-06-10T02:22:57.125Z,95.51
2018-06-10T02:24:06.864Z,95.89
2018-06-10T02:25:16.610Z,97.33
2018-06-10T02:26:26.403Z,98
2018-06-10T02:27:35.881Z,97.33
2018-06-10T02:28:45.627Z,96.84
2018-06-10T02:29:55.632Z,95.31
2018-06-10T02:31:05.650Z,95.31
2018-06-10T02:32:18.451Z,94.35
2018-06-10T02:33:28.462Z,94.64
2018-06-10T02:34:37.938Z,94.07
2018-06-10T02:35:47.155Z,94.07
2018-06-10T02:36:57.180Z,94.45
2018-06-10T02:38:07.193Z,94.45
2018-06-10T02:39:17.206Z,94.17
2018-06-10T02:40:26.690Z,93.69
2018-06-10T02:41:36.706Z,93.88
2018-06-10T02:42:46.452Z,93.78
2018-06-10T02:43:56.210Z,94.17
2018-06-10T02:45:05.966Z,93.49
2018-06-10T02:46:15.978Z,93.69
2018-06-10T02:47:25.998Z,93.88
2018-06-10T02:48:35.484Z,93.88
2018-06-10T02:49:45.513Z,93.88
2018-06-10T02:50:55.268Z,94.07
2018-06-10T02:52:05.015Z,93.69
2018-06-10T02:53:15.028Z,93.49
2018-06-10T02:54:24.520Z,93.98
2018-06-10T02:55:34.272Z,93.69
2018-06-10T02:56:44.288Z,93.4
2018-06-10T02:57:54.045Z,92.63
2018-06-10T02:59:03.526Z,93.59
2018-06-10T03:03:21.304Z,93.49
2018-06-10T03:04:31.329Z,93.49
2018-06-10T03:05:40.814Z,92.92
2018-06-10T03:06:50.561Z,93.54
2018-06-10T03:08:00.740Z,93.59
2018-06-10T03:09:10.493Z,93.35
2018-06-10T03:10:19.978Z,93.35
2018-06-10T03:11:29.726Z,93.63
2018-06-10T03:12:39.746Z,94.12
2018-06-10T03:13:49.227Z,94.21
2018-06-10T03:14:58.975Z,93.93
2018-06-10T03:16:08.190Z,94.02
2018-06-10T03:17:18.204Z,94.4
2018-06-10T03:18:27.958Z,93.93
2018-06-10T03:19:37.699Z,93.54
2018-06-10T03:20:47.708Z,93.93
2018-06-10T03:21:57.721Z,93.73
2018-06-10T03:23:07.199Z,93.93
2018-06-10T03:24:16.941Z,93.83
2018-06-10T03:25:26.424Z,94.02
2018-06-10T03:26:36.022Z,94.12
2018-06-10T03:27:46.050Z,94.5
2018-06-10T03:28:55.800Z,94.12
2018-06-10T03:30:05.819Z,94.4
2018-06-10T03:31:15.580Z,94.21
2018-06-10T03:32:25.595Z,94.31
2018-06-10T03:33:35.081Z,94.4
2018-06-10T03:34:45.086Z,93.73
2018-06-10T03:35:54.829Z,94.59
2018-06-10T03:37:04.581Z,94.69
2018-06-10T03:38:14.061Z,94.59
2018-06-10T03:39:24.071Z,94.79
2018-06-10T03:40:33.551Z,94.89
2018-06-10T03:41:43.033Z,95.17
2018-06-10T03:42:53.041Z,94.5
2018-06-10T03:44:03.057Z,94.5
2018-06-10T03:45:12.805Z,94.59
2018-06-10T03:46:22.553Z,94.31
2018-06-10T03:47:32.564Z,94.4
2018-06-10T03:48:42.574Z,93.73
2018-06-10T03:49:52.584Z,93.63
2018-06-10T03:51:02.329Z,94.31
2018-06-10T03:52:12.348Z,94.5
2018-06-10T03:53:22.364Z,94.69
2018-06-10T03:54:32.382Z,94.21
2018-06-10T03:55:42.394Z,93.63
2018-06-10T03:56:52.468Z,93.26
2018-06-10T03:58:02.209Z,94.21
2018-06-10T03:59:11.429Z,94.5
2018-06-10T04:00:21.433Z,94.02
2018-06-10T04:01:31.442Z,94.5
2018-06-10T04:02:41.460Z,94.21
2018-06-10T04:03:51.208Z,94.4
2018-06-10T04:05:00.952Z,94.59
2018-06-10T04:06:10.959Z,93.93
2018-06-10T04:07:20.968Z,93.44
2018-06-10T04:08:30.987Z,93.93
2018-06-10T04:09:40.728Z,93.93
2018-06-10T04:10:50.208Z,93.54
2018-06-10T04:11:59.956Z,93.88
2018-06-10T04:13:09.964Z,93.49
2018-06-10T04:14:19.979Z,93.4
2018-06-10T04:15:29.996Z,93.4
2018-06-10T04:16:40.019Z,94.17
2018-06-10T04:17:50.041Z,93.59
2018-06-10T04:18:59.779Z,93.68
2018-06-10T04:20:09.794Z,93.59
2018-06-10T04:21:19.534Z,93.4
2018-06-10T04:22:29.287Z,92.91
2018-06-10T04:23:39.157Z,92.72
2018-06-10T04:24:49.169Z,92.44
2018-06-10T04:25:59.177Z,92.77
2018-06-10T04:27:08.655Z,93.54
2018-06-10T04:28:18.668Z,92.86
2018-06-10T04:29:28.420Z,93.54
2018-06-10T04:30:38.164Z,93.15
2018-06-10T04:31:47.645Z,92.86
2018-06-10T04:32:57.651Z,93.06
2018-06-10T04:34:07.403Z,92.96
2018-06-10T04:35:17.413Z,92.68
2018-06-10T04:36:27.434Z,92.48
2018-06-10T04:37:37.182Z,92.29
2018-06-10T04:38:47.196Z,92
2018-06-10T04:39:56.946Z,92.48
2018-06-10T04:41:06.695Z,92.19
2018-06-10T04:42:16.707Z,92.29
2018-06-10T04:43:26.770Z,92.29
2018-06-10T04:44:36.523Z,91.91
2018-06-10T04:45:46.536Z,91.62
2018-06-10T04:46:56.280Z,91.42
2018-06-10T04:48:05.755Z,91.62
2018-06-10T04:49:15.503Z,91.33
2018-06-10T04:50:25.527Z,91.05
2018-06-10T04:51:35.322Z,91.14
2018-06-10T04:52:45.338Z,91.62
2018-06-10T04:53:55.357Z,92.48
2018-06-10T04:55:05.106Z,93.06
2018-06-10T04:56:14.865Z,93.15
2018-06-10T04:57:24.618Z,91.81
2018-06-10T04:58:34.634Z,91.42
2018-06-10T04:59:44.644Z,91.42
2018-06-10T05:00:54.118Z,90.52
2018-06-10T05:02:04.132Z,90.22
2018-06-10T05:03:14.144Z,89.75
2018-06-10T05:04:23.359Z,88.88
2018-06-10T05:05:33.106Z,89.26
2018-06-10T05:06:42.584Z,89.46
2018-06-10T05:07:52.600Z,88.21
2018-06-10T05:09:02.608Z,87.1
2018-06-10T05:10:12.348Z,87.19
2018-06-10T05:11:22.099Z,87.39
2018-06-10T05:12:31.844Z,86.52
2018-06-10T05:13:41.589Z,86.43
2018-06-10T05:14:51.339Z,85.75
2018-06-10T05:16:01.081Z,85.13
2018-06-10T05:17:11.094Z,84.64
2018-06-10T05:18:20.573Z,84.17
2018-06-10T05:19:30.049Z,83.97
2018-06-10T05:20:40.284Z,84.26
2018-06-10T05:21:50.299Z,83.69
2018-06-10T05:23:00.306Z,83.78
2018-06-10T05:24:09.527Z,84.07
2018-06-10T05:25:19.539Z,84.55
2018-06-10T05:26:29.297Z,84.55
2018-06-10T05:27:39.307Z,83.69
2018-06-10T05:28:49.053Z,83.92
2018-06-10T05:29:58.266Z,83.83
2018-06-10T05:31:08.026Z,83.53
2018-06-10T05:32:17.777Z,82.48
2018-06-10T05:33:27.253Z,82.76
2018-06-10T05:34:37.278Z,83.53
2018-06-10T05:35:47.024Z,83.2
2018-06-10T05:36:57.037Z,83.44
2018-06-10T05:38:07.049Z,82.76
2018-06-10T05:39:16.798Z,82.19
2018-06-10T05:40:26.811Z,81.99
2018-06-10T05:41:36.559Z,82.96
2018-06-10T05:42:46.306Z,83.25
2018-06-10T05:43:56.058Z,82.15
2018-06-10T05:45:05.804Z,81.19
2018-06-10T05:46:15.825Z,81.19
2018-06-10T05:47:25.570Z,81.76
2018-06-10T05:48:35.054Z,81.48
2018-06-10T05:49:45.078Z,81.19
2018-06-10T05:50:55.094Z,81.32
2018-06-10T05:52:04.308Z,81.48
2018-06-10T05:53:14.060Z,80.8
2018-06-10T05:54:24.083Z,81.23
2018-06-10T05:55:33.562Z,80.75
2018-06-10T05:56:42.783Z,80.84
2018-06-10T05:57:52.531Z,80.27
2018-06-10T05:59:02.275Z,80.17
2018-06-10T06:00:12.019Z,81.04
2018-06-10T06:01:21.510Z,81.71
2018-06-10T06:02:30.788Z,82.48
2018-06-10T06:03:40.271Z,81.71
2018-06-10T06:04:50.290Z,81.9
2018-06-10T06:06:00.305Z,81.81
2018-06-10T06:07:09.788Z,81.61
2018-06-10T06:08:19.534Z,81.42
2018-06-10T06:09:29.283Z,81.52
2018-06-10T06:10:39.290Z,81.52
2018-06-10T06:11:49.347Z,81.99
2018-06-10T06:12:59.095Z,81.71
2018-06-10T06:14:08.570Z,82.19
2018-06-10T06:15:18.315Z,83.73
2018-06-10T06:16:28.331Z,84.21
2018-06-10T06:17:38.347Z,84.78
2018-06-10T06:18:48.103Z,84.11
2018-06-10T06:19:58.115Z,83.92
2018-06-10T06:21:08.131Z,83.69
2018-06-10T06:22:18.140Z,83.78
2018-06-10T06:23:28.154Z,83.78
2018-06-10T06:24:37.900Z,84.17
2018-06-10T06:25:47.653Z,84.07
2018-06-10T06:26:57.402Z,85.13
2018-06-10T06:28:06.882Z,85.89
2018-06-10T06:29:16.629Z,86.38
2018-06-10T06:30:26.109Z,85.41
2018-06-10T06:31:36.138Z,85.22
2018-06-10T06:32:46.155Z,85.61
2018-06-10T06:33:56.176Z,86.28
2018-06-10T06:35:06.198Z,87.05
2018-06-10T06:36:15.945Z,87.72
2018-06-10T06:37:25.962Z,88.1
2018-06-10T06:38:35.715Z,88.06
2018-06-10T06:39:45.457Z,88.73
2018-06-10T06:40:54.934Z,87.96
2018-06-10T06:42:04.946Z,87.39
2018-06-10T06:43:14.429Z,87.87
2018-06-10T06:44:24.439Z,87.1
2018-06-10T06:45:33.923Z,87.87
2018-06-10T06:46:43.934Z,88.35
2018-06-10T06:47:53.690Z,87.53
2018-06-10T06:49:03.172Z,86.57
2018-06-10T06:50:13.182Z,86.76
2018-06-10T06:51:22.929Z,86.57
2018-06-10T06:52:32.689Z,86.57
2018-06-10T06:53:42.442Z,85.89
2018-06-10T06:54:52.188Z,84.45
2018-06-10T06:56:02.195Z,83.69
2018-06-10T06:57:12.205Z,83.69
2018-06-10T06:58:22.220Z,83.53
2018-06-10T06:59:32.243Z,83.06
2018-06-10T07:00:42.261Z,83.15
2018-06-10T07:01:52.269Z,82.86
2018-06-10T07:03:02.292Z,82.86
2018-06-10T07:04:12.103Z,81.61
2018-06-10T07:05:21.944Z,82.61
2018-06-10T07:06:31.960Z,82.23
2018-06-10T07:07:41.975Z,82.23
2018-06-10T07:08:51.729Z,82.42
2018-06-10T07:10:01.755Z,83.09
2018-06-10T07:11:11.773Z,83.04
2018-06-10T07:12:21.517Z,83.23
2018-06-10T07:13:31.267Z,83.62
2018-06-10T07:14:41.282Z,82.85
2018-06-10T07:15:50.765Z,82.17
2018-06-10T07:17:00.561Z,81.6
2018-06-10T07:18:10.318Z,81.6
2018-06-10T07:19:20.328Z,81.5
2018-06-10T07:20:29.816Z,81.02
2018-06-10T07:21:39.839Z,80.25
2018-06-10T07:22:49.847Z,79.9
2018-06-10T07:23:59.863Z,79.43
2018-06-10T07:25:09.907Z,79.13
2018-06-10T07:26:19.924Z,78.4
2018-06-10T07:27:29.933Z,78.59
2018-06-10T07:28:39.416Z,78.11
2018-06-10T07:29:49.442Z,76.76
2018-06-10T07:30:59.185Z,76.09
2018-06-10T07:32:08.932Z,75.8
2018-06-10T07:33:18.953Z,75.71
2018-06-10T07:34:29.088Z,75.8
2018-06-10T07:35:38.834Z,76.18
2018-06-10T07:36:48.318Z,76.18
2018-06-10T07:37:58.338Z,76.38
2018-06-10T07:39:08.386Z,77.53
2018-06-10T07:40:18.144Z,76.48
2018-06-10T07:41:28.178Z,77.34
2018-06-10T07:42:37.939Z,76.76
2018-06-10T07:43:47.954Z,76.76
2018-06-10T07:44:57.443Z,76.18
2018-06-10T07:46:06.933Z,76.18
2018-06-10T07:47:16.680Z,76.67
2018-06-10T07:48:26.636Z,76.57
2018-06-10T07:49:36.499Z,76.76
2018-06-10T07:50:46.520Z,76.28
2018-06-10T07:51:56.275Z,76.09
2018-06-10T07:53:06.017Z,76.18
2018-06-10T07:54:16.043Z,76.18
2018-06-10T07:55:25.792Z,76.48
2018-06-10T07:56:35.818Z,76.67
2018-06-10T07:57:45.834Z,77.63
2018-06-10T07:58:55.584Z,77.44
2018-06-10T08:00:05.425Z,78.21
2018-06-10T08:01:15.391Z,78.31
2018-06-10T08:02:25.414Z,78.79
2018-06-10T08:03:35.167Z,78.02
2018-06-10T08:04:45.179Z,77.73
2018-06-10T08:05:55.196Z,77.44
2018-06-10T08:07:04.944Z,77.83
2018-06-10T08:08:14.158Z,77.15
2018-06-10T08:09:24.172Z,77.53
2018-06-10T08:10:33.655Z,77.25
2018-06-10T08:11:43.398Z,76.48
2018-06-10T08:12:53.145Z,75.99
2018-06-10T08:14:02.890Z,76.03
2018-06-10T08:15:12.906Z,76.32
2018-06-10T08:16:22.662Z,76.23
2018-06-10T08:17:32.669Z,75.74
2018-06-10T08:18:42.485Z,75.84
2018-06-10T08:19:52.727Z,75.26
2018-06-10T08:21:02.476Z,75.55
2018-06-10T08:22:12.222Z,75.84
2018-06-10T08:23:21.970Z,75.45
2018-06-10T08:24:32.038Z,75.65
2018-06-10T08:25:41.507Z,75.55
2018-06-10T08:26:51.257Z,75.65
2018-06-10T08:28:01.275Z,76.23
2018-06-10T08:29:10.491Z,77.28
2018-06-10T08:30:20.506Z,77.76
2018-06-10T08:31:30.518Z,76.71
2018-06-10T08:32:40.007Z,76.51
2018-06-10T08:33:50.021Z,76.93
2018-06-10T08:35:00.385Z,76.65
2018-06-10T08:36:10.131Z,76.75
2018-06-10T08:37:19.919Z,75.78
2018-06-10T08:38:30.072Z,74.82
2018-06-10T08:39:39.820Z,74.37
2018-06-10T08:40:49.833Z,73.69
2018-06-10T08:41:59.858Z,72.83
2018-06-10T08:43:09.608Z,72.63
2018-06-10T08:44:19.362Z,71.38
2018-06-10T08:45:29.382Z,72.19
2018-06-10T08:46:39.127Z,73.35
2018-06-10T08:47:48.608Z,73.35
2018-06-10T08:48:58.625Z,73.44
2018-06-10T08:50:08.637Z,72.44
2018-06-10T08:51:18.395Z,72.09
2018-06-10T08:52:28.147Z,72
2018-06-10T08:53:38.162Z,72
2018-06-10T08:54:48.185Z,71.32
2018-06-10T08:55:58.211Z,71.42
2018-06-10T08:57:07.978Z,71.32
2018-06-10T08:58:17.727Z,71.61
2018-06-10T08:59:27.475Z,72
2018-06-10T09:00:37.488Z,72
2018-06-10T09:01:47.505Z,71.9
2018-06-10T09:02:57.598Z,72.19
2018-06-10T09:04:07.404Z,70.8
2018-06-10T09:05:17.154Z,71.61
2018-06-10T09:06:27.169Z,71.22
2018-06-10T09:07:37.179Z,70.54
2018-06-10T09:08:47.378Z,67.85
2018-06-10T09:09:57.436Z,67.75
2018-06-10T09:11:06.918Z,67.75
2018-06-10T09:12:16.930Z,68.52
2018-06-10T09:13:26.947Z,67.65
2018-06-10T09:14:36.962Z,67.75
2018-06-10T09:15:46.764Z,67.78
2018-06-10T09:16:56.512Z,67.01
2018-06-10T09:18:06.526Z,65.47
2018-06-10T09:19:16.536Z,64.89
2018-06-10T09:20:25.748Z,65.27
2018-06-10T09:21:35.498Z,65.85
2018-06-10T09:22:45.255Z,66.53
2018-06-10T09:23:55.272Z,64.98
2018-06-10T09:25:05.026Z,65.11
2018-06-10T09:26:15.090Z,65.5
2018-06-10T09:27:24.837Z,65.59
2018-06-10T09:28:34.853Z,65.78
2018-06-10T09:29:44.881Z,65.4
2018-06-10T09:30:54.900Z,64.92
2018-06-10T09:32:04.924Z,64.37
2018-06-10T09:33:14.680Z,63.79
2018-06-10T09:34:24.700Z,63.21
2018-06-10T09:35:33.945Z,63.89
2018-06-10T09:36:44.030Z,63.5
2018-06-10T09:37:54.067Z,62.63
2018-06-10T09:39:03.820Z,62.73
2018-06-10T09:40:13.305Z,62.63
2018-06-10T09:41:22.793Z,62.34
2018-06-10T09:42:32.537Z,61.02
2018-06-10T09:43:42.298Z,61.11
2018-06-10T09:44:52.312Z,61.3
2018-06-10T09:46:02.344Z,60.44
2018-06-10T09:47:11.834Z,60.53
2018-06-10T09:48:21.853Z,60.53
2018-06-10T09:49:31.906Z,60.53
2018-06-10T09:50:41.663Z,60.57
2018-06-10T09:51:51.694Z,60.34
2018-06-10T09:53:01.179Z,58.82
2018-06-10T09:54:10.929Z,58.98
2018-06-10T09:55:21.308Z,59.98
2018-06-10T09:56:32.159Z,58.44
2018-06-10T09:57:42.182Z,58.14
2018-06-10T09:58:51.928Z,58.34
2018-06-10T10:00:01.941Z,58.92
2018-06-10T10:01:11.959Z,59.11
2018-06-10T10:02:21.444Z,59.01
2018-06-10T10:03:31.454Z,58.53
2018-06-10T10:04:41.474Z,58.37
2018-06-10T10:05:51.492Z,57.69
2018-06-10T10:07:01.509Z,57.88
2018-06-10T10:08:11.269Z,57.98
2018-06-10T10:09:21.025Z,57.69
2018-06-10T10:10:31.041Z,57.88
2018-06-10T10:11:40.791Z,57.3
2018-06-10T10:12:50.537Z,58.11
2018-06-10T10:14:00.549Z,56.75
2018-06-10T10:15:10.308Z,57.04
2018-06-10T10:16:20.335Z,56.85
2018-06-10T10:17:30.350Z,56.94
2018-06-10T10:18:39.840Z,56.75
2018-06-10T10:19:49.322Z,56.94
2018-06-10T10:20:59.335Z,55.88
2018-06-10T10:22:08.816Z,57.07
2018-06-10T10:23:18.827Z,56.49
2018-06-10T10:24:28.573Z,56
2018-06-10T10:25:38.465Z,55.9
2018-06-10T10:26:48.279Z,55.62
2018-06-10T10:27:58.299Z,56.39
2018-06-10T10:29:08.052Z,55.26
2018-06-10T10:30:17.542Z,55.16
2018-06-10T10:31:29.298Z,55.54
2018-06-10T10:32:39.060Z,54.28
2018-06-10T10:33:48.808Z,54.09
2018-06-10T10:34:58.292Z,54.77
2018-06-10T10:36:08.332Z,53.02
2018-06-10T10:37:18.085Z,51.76
2018-06-10T10:38:28.127Z,52.15
2018-06-10T10:39:38.002Z,52.73
2018-06-10T10:40:47.219Z,52.15
2018-06-10T10:41:57.239Z,52.56
2018-06-10T10:43:07.009Z,53.02
2018-06-10T10:44:17.025Z,52.64
2018-06-10T10:45:26.778Z,51.09
2018-06-10T10:46:36.262Z,51.21
2018-06-10T10:47:46.018Z,51.89
2018-06-10T10:48:55.859Z,51.31
2018-06-10T10:50:05.662Z,50.53
2018-06-10T10:51:15.684Z,50.34
2018-06-10T10:52:25.699Z,50.62
2018-06-10T10:53:35.205Z,50.74
2018-06-10T10:54:45.220Z,51.33
2018-06-10T10:55:54.965Z,51.04
2018-06-10T10:57:04.630Z,50.07
2018-06-10T10:58:14.392Z,51.14
2018-06-10T10:59:24.141Z,50.65
2018-06-10T11:00:33.892Z,51.04
2018-06-10T11:01:43.919Z,51.14
2018-06-10T11:02:53.961Z,51.06
2018-06-10T11:04:03.719Z,51.35
2018-06-10T11:05:13.202Z,51.06
2018-06-10T11:06:23.009Z,51.16
2018-06-10T11:07:32.763Z,51.16
2018-06-10T11:08:42.242Z,51.16
2018-06-10T11:09:51.995Z,51.06
2018-06-10T11:11:02.014Z,50.68
2018-06-10T11:12:14.030Z,50.77
2018-06-10T11:13:23.786Z,50.65
2018-06-10T11:14:33.811Z,50.36
2018-06-10T11:15:43.827Z,50.74
2018-06-10T11:16:53.845Z,50.65
2018-06-10T11:18:03.865Z,51.21
2018-06-10T11:19:13.629Z,51.33
2018-06-10T11:20:23.733Z,50.84
2018-06-10T11:21:33.608Z,50.36
2018-06-10T11:22:43.363Z,49.68
2018-06-10T11:23:55.383Z,49.61
2018-06-10T11:25:04.878Z,50.77
2018-06-10T11:26:14.096Z,50.48
2018-06-10T11:27:23.976Z,50.19
2018-06-10T11:28:33.539Z,50.38
2018-06-10T11:29:43.306Z,49.34
2018-06-10T11:30:53.327Z,50.21
2018-06-10T11:32:03.080Z,49.54
2018-06-10T11:33:13.099Z,48.47
2018-06-10T11:34:22.675Z,47.98
2018-06-10T11:35:32.212Z,48.18
2018-06-10T11:36:42.233Z,48.57
2018-06-10T11:37:52.254Z,48.83
2018-06-10T11:39:02.277Z,49.22
2018-06-10T11:40:11.764Z,49.8
2018-06-10T11:41:21.519Z,49.8
2018-06-10T11:42:31.635Z,49.71
2018-06-10T11:43:41.602Z,49.49
2018-06-10T11:44:51.087Z,50.36
2018-06-10T11:46:00.843Z,50.46
2018-06-10T11:47:10.333Z,51.01
2018-06-10T11:48:20.353Z,50.82
2018-06-10T11:49:30.369Z,51.01
2018-06-10T11:50:39.855Z,52.66
2018-06-10T11:51:49.874Z,52.76
2018-06-10T11:52:59.388Z,52.37
2018-06-10T11:54:09.406Z,52.18
2018-06-10T11:55:19.156Z,51.35
2018-06-10T11:56:28.903Z,52.35
2018-06-10T11:57:38.968Z,53.06
2018-06-10T11:58:48.721Z,53.25
2018-06-10T11:59:58.472Z,52.43
2018-06-10T12:01:07.966Z,51.51
2018-06-10T12:02:17.720Z,52.12
2018-06-10T12:03:27.478Z,48.56
2018-06-10T12:04:37.229Z,47.36
2018-06-10T12:05:46.989Z,47.41
2018-06-10T12:06:56.749Z,42.85
2018-06-10T12:08:06.779Z,38.76
2018-06-10T12:09:16.595Z,39.43
2018-06-10T12:10:26.672Z,37.27
2018-06-10T12:11:36.622Z,38.26
2018-06-10T12:12:46.115Z,39.1
2018-06-10T12:13:56.142Z,38.71
2018-06-10T12:15:06.172Z,40.31
2018-06-10T12:16:16.203Z,41.35
2018-06-10T12:17:25.959Z,41.22
2018-06-10T12:18:35.989Z,42.86
2018-06-10T12:19:45.760Z,42.76
2018-06-10T12:20:55.778Z,42.94
2018-06-10T12:22:05.267Z,43.6
2018-06-10T12:23:15.023Z,43.89
2018-06-10T12:24:24.843Z,45.54
2018-06-10T12:25:34.867Z,46.51
2018-06-10T12:26:44.898Z,47.3
2018-06-10T12:27:54.917Z,45.84
2018-06-10T12:29:04.403Z,47.17
2018-06-10T12:30:14.158Z,44.94
2018-06-10T12:31:23.643Z,46.5
2018-06-10T12:32:32.864Z,48.71
2018-06-10T12:33:42.669Z,46.28
2018-06-10T12:34:52.703Z,46.86
2018-06-10T12:36:02.735Z,46.03
2018-06-10T12:37:12.500Z,43.05
2018-06-10T12:38:22.258Z,42.61
2018-06-10T12:39:32.319Z,41.11
2018-06-10T12:40:42.340Z,40.27
2018-06-10T12:41:52.376Z,38.55
2018-06-10T12:43:02.414Z,36.43
2018-06-10T12:44:11.919Z,35.1
2018-06-10T12:45:21.946Z,35.33
2018-06-10T12:46:31.982Z,33.59
2018-06-10T12:47:41.749Z,31.85
2018-06-10T12:48:51.517Z,32.18
2018-06-10T12:50:01.280Z,31.23
2018-06-10T12:51:10.981Z,30.37
2018-06-10T12:52:21.011Z,29.2
2018-06-10T12:53:31.038Z,29.33
2018-06-10T12:54:41.058Z,26.89
2018-06-10T12:55:51.086Z,27.09
2018-06-10T12:57:01.290Z,26.02
2018-06-10T12:58:11.340Z,24.95
2018-06-10T12:59:21.371Z,25.84
2018-06-10T13:00:31.131Z,25.45
2018-06-10T13:01:40.634Z,24.87
2018-06-10T13:02:50.766Z,24.08
2018-06-10T13:04:00.793Z,24.2
2018-06-10T13:05:10.570Z,23.61
2018-06-10T13:06:20.329Z,22.93
2018-06-10T13:07:30.097Z,23.44
2018-06-10T13:08:39.859Z,23.25
2018-06-10T13:09:49.356Z,23.35
2018-06-10T13:10:59.157Z,23.16
2018-06-10T13:12:08.658Z,22.07
2018-06-10T13:13:18.690Z,21.36
2018-06-10T13:14:28.722Z,22.75
2018-06-10T13:15:38.486Z,23.04
2018-06-10T13:16:48.249Z,23.15
2018-06-10T13:17:58.019Z,21.95
2018-06-10T13:19:07.521Z,23.81
2018-06-10T13:20:17.015Z,23.29
2018-06-10T13:21:27.048Z,24.93
2018-06-10T13:22:37.075Z,24.82
2018-06-10T13:23:46.882Z,25.68
2018-06-10T13:24:56.646Z,26.65
2018-06-10T13:26:06.144Z,27.01
2018-06-10T13:27:15.637Z,27.1
2018-06-10T13:28:25.407Z,26.97
2018-06-10T13:29:34.904Z,28.23
2018-06-10T13:30:44.952Z,29.2
2018-06-10T13:31:54.761Z,30.05
2018-06-10T13:33:04.537Z,30.71
2018-06-10T13:34:14.566Z,30.99
2018-06-10T13:35:23.792Z,32.03
2018-06-10T13:36:33.815Z,32.89
2018-06-10T13:37:43.856Z,34.05
2018-06-10T13:38:53.888Z,34.05
2018-06-10T13:40:03.651Z,34.89
2018-06-10T13:41:13.412Z,34.48
2018-06-10T13:42:23.438Z,35.36
2018-06-10T13:43:33.464Z,35.64
2018-06-10T13:44:43.502Z,35.43
2018-06-10T13:45:53.580Z,36.1
2018-06-10T13:47:03.854Z,37.27
2018-06-10T13:48:13.874Z,37.83
2018-06-10T13:49:23.631Z,38.1
2018-06-10T13:50:33.390Z,39.84
2018-06-10T13:51:42.884Z,41.09
2018-06-10T13:52:52.908Z,42.74
2018-06-10T13:54:02.453Z,43.5
2018-06-10T13:55:11.732Z,43.87
2018-06-10T13:56:21.484Z,43.77
2018-06-10T13:57:31.507Z,44.04
2018-06-10T13:58:41.268Z,52.31
2018-06-10T13:59:51.293Z,60.19
